Time;durP1;ratioP1;P1;durP2;ratioP2;P2;SDS_P1;SDS_P2;PMS_P1;PMS_P2;Temp;Humidity;BMP_temperature;BMP_pressure;BME280_temperature;BME280_humidity;BME280_pressure;Samples;Min_cycle;Max_cycle;Signal;HPM_P1;HPM_P2
2024/01/17 00:00:13;;;;;;;15.77;9.75;;;;;;;-0.87;66.29;99534.09;4902176;29;20055;-94
2024/01/17 00:02:38;;;;;;;15.07;9.05;;;;;;;-0.79;66.23;99551.63;4902972;29;20020;-94
2024/01/17 00:05:04;;;;;;;16.50;8.73;;;;;;;-0.92;66.58;99564.72;4903167;29;20110;-92
2024/01/17 00:07:30;;;;;;;16.98;8.75;;;;;;;-1.14;66.18;99543.59;4919424;29;20498;-93
2024/01/17 00:09:55;;;;;;;16.00;8.82;;;;;;;-1.25;66.65;99546.72;4903687;29;20028;-92
2024/01/17 00:12:21;;;;;;;18.23;9.50;;;;;;;-1.34;66.91;99564.50;4903302;29;20031;-93
2024/01/17 00:14:49;;;;;;;15.48;9.23;;;;;;;-1.18;66.76;99550.25;4904795;29;20016;-93
2024/01/17 00:17:15;;;;;;;17.00;8.88;;;;;;;-0.99;66.63;99561.22;4904190;29;20024;-93
2024/01/17 00:19:40;;;;;;;21.63;9.05;;;;;;;-0.98;66.47;99563.66;4902689;29;20388;-93
2024/01/17 00:22:06;;;;;;;17.10;9.70;;;;;;;-1.34;66.51;99540.72;4903996;29;20410;-93
2024/01/17 00:24:31;;;;;;;15.32;9.13;;;;;;;-1.42;67.32;99541.66;4903348;29;20043;-93
2024/01/17 00:26:57;;;;;;;15.68;9.30;;;;;;;-1.50;67.54;99544.41;4902406;29;20442;-94
2024/01/17 00:29:22;;;;;;;16.85;9.18;;;;;;;-1.53;67.23;99528.94;4902201;29;20031;-92
2024/01/17 00:31:48;;;;;;;17.60;9.68;;;;;;;-1.52;67.67;99533.22;4900805;29;20067;-92
2024/01/17 00:34:13;;;;;;;15.93;9.90;;;;;;;-1.48;67.42;99536.31;4886632;29;20039;-93
2024/01/17 00:36:39;;;;;;;14.68;9.00;;;;;;;-1.44;67.00;99533.09;4902038;29;20032;-93
2024/01/17 00:39:04;;;;;;;13.00;8.15;;;;;;;-1.41;67.33;99524.00;4886581;29;20028;-94
2024/01/17 00:41:30;;;;;;;16.02;9.60;;;;;;;-1.56;67.13;99512.66;4903460;29;20031;-93
2024/01/17 00:43:55;;;;;;;15.93;9.13;;;;;;;-1.54;67.61;99524.66;4902487;29;20458;-93
2024/01/17 00:46:21;;;;;;;14.25;9.10;;;;;;;-1.84;68.13;99497.53;4904420;29;20028;-93
2024/01/17 00:48:46;;;;;;;15.10;7.82;;;;;;;-1.88;68.55;99497.06;4902842;29;20039;-93
2024/01/17 00:51:24;;;;;;;11.70;7.43;;;;;;;-1.83;68.59;99501.78;4902935;29;20020;-92
2024/01/17 00:53:49;;;;;;;16.20;8.52;;;;;;;-1.72;68.65;99519.81;4902157;29;20499;-93
2024/01/17 00:56:15;;;;;;;15.05;8.93;;;;;;;-1.74;68.54;99511.25;4902653;29;20061;-93
2024/01/17 00:58:41;;;;;;;18.02;9.07;;;;;;;-1.96;68.68;99469.97;4885715;29;20040;-93
2024/01/17 01:01:06;;;;;;;15.23;8.82;;;;;;;-1.92;68.84;99479.97;4899061;29;20530;-93
2024/01/17 01:03:32;;;;;;;13.45;8.75;;;;;;;-1.71;67.99;99473.91;4898996;29;20021;-92
2024/01/17 01:05:57;;;;;;;16.90;9.05;;;;;;;-1.77;68.14;99463.28;4884086;29;20025;-94
2024/01/17 01:08:23;;;;;;;17.50;8.68;;;;;;;-1.71;67.88;99457.25;4883883;29;20031;-93
2024/01/17 01:10:48;;;;;;;14.55;7.70;;;;;;;-1.57;67.84;99458.22;4898400;29;20507;-93
2024/01/17 01:13:14;;;;;;;14.45;7.78;;;;;;;-1.55;67.77;99456.22;4898308;29;20032;-93
2024/01/17 01:15:39;;;;;;;15.02;8.27;;;;;;;-1.46;67.94;99458.53;4898680;29;20029;-93
2024/01/17 01:18:05;;;;;;;11.38;7.20;;;;;;;-1.46;67.96;99452.44;4898079;29;20559;-93
2024/01/17 01:20:30;;;;;;;10.55;6.38;;;;;;;-1.36;68.00;99452.13;4899042;29;20028;-92
2024/01/17 01:22:56;;;;;;;12.95;8.25;;;;;;;-1.47;67.65;99445.53;4884904;29;20028;-93
2024/01/17 01:25:22;;;;;;;13.10;8.45;;;;;;;-1.53;68.04;99456.84;4886304;29;20035;-94
2024/01/17 01:27:47;;;;;;;13.18;8.23;;;;;;;-1.69;67.97;99448.16;4902075;29;20096;-94
2024/01/17 01:30:13;;;;;;;14.30;7.90;;;;;;;-1.50;67.91;99461.75;4885312;29;20024;-93
2024/01/17 01:32:38;;;;;;;16.02;8.00;;;;;;;-1.27;68.14;99464.19;4886134;29;20039;-93
2024/01/17 01:35:04;;;;;;;14.07;8.63;;;;;;;-1.46;67.46;99439.22;4902216;29;20490;-94
2024/01/17 01:37:30;;;;;;;14.40;8.57;;;;;;;-1.39;67.60;99455.13;4901267;29;20032;-93
2024/01/17 01:39:55;;;;;;;17.95;9.43;;;;;;;-1.51;67.70;99447.72;4902615;29;20092;-92
2024/01/17 01:42:21;;;;;;;12.20;8.02;;;;;;;-1.74;67.24;99429.44;4885838;29;20024;-93
2024/01/17 01:44:46;;;;;;;13.25;8.00;;;;;;;-1.77;67.58;99426.34;4886996;29;20041;-93
2024/01/17 01:47:13;;;;;;;18.60;8.98;;;;;;;-1.67;67.73;99459.34;4901972;29;20064;-93
2024/01/17 01:49:38;;;;;;;15.15;8.43;;;;;;;-1.83;67.75;99443.72;4905818;29;20032;-93
2024/01/17 01:52:04;;;;;;;12.35;7.20;;;;;;;-1.91;67.56;99423.56;4885691;29;20028;-93
2024/01/17 01:54:29;;;;;;;15.63;7.82;;;;;;;-1.85;67.77;99445.72;4887308;29;20028;-93
2024/01/17 01:56:56;;;;;;;13.05;8.25;;;;;;;-2.08;67.92;99412.38;4901244;29;20486;-92
2024/01/17 01:59:21;;;;;;;13.63;7.85;;;;;;;-2.05;67.78;99414.66;4904222;29;20084;-94
2024/01/17 02:01:47;;;;;;;13.43;7.60;;;;;;;-1.96;67.73;99439.13;4889191;29;20024;-93
2024/01/17 02:04:12;;;;;;;12.50;7.15;;;;;;;-2.11;68.21;99443.63;4905031;29;20024;-93
2024/01/17 02:06:38;;;;;;;15.60;7.80;;;;;;;-2.27;68.26;99410.34;4905023;29;20478;-93
2024/01/17 02:09:03;;;;;;;12.75;7.22;;;;;;;-2.31;68.55;99404.59;4904936;29;20478;-93
2024/01/17 02:11:29;;;;;;;14.15;7.53;;;;;;;-2.32;68.13;99408.25;4889665;29;20391;-93
2024/01/17 02:13:55;;;;;;;11.65;7.15;;;;;;;-2.27;68.45;99424.34;4904651;29;20483;-93
2024/01/17 02:16:21;;;;;;;12.00;7.78;;;;;;;-2.48;69.15;99411.09;4904928;29;20024;-93
2024/01/17 02:18:47;;;;;;;11.70;7.97;;;;;;;-2.57;69.58;99407.75;4905694;29;20024;-93
2024/01/17 02:21:12;;;;;;;16.15;8.30;;;;;;;-2.54;69.37;99411.81;4904172;29;20035;-93
2024/01/17 02:23:38;;;;;;;14.20;8.90;;;;;;;-2.45;69.25;99426.53;4904219;29;20491;-93
2024/01/17 02:26:03;;;;;;;14.38;8.60;;;;;;;-2.47;68.89;99404.81;4887483;29;20028;-93
2024/01/17 02:28:30;;;;;;;17.50;9.40;;;;;;;-2.50;69.44;99419.19;4904244;29;20091;-93
2024/01/17 02:30:56;;;;;;;15.05;9.55;;;;;;;-2.65;69.64;99395.47;4904048;29;20032;-94
2024/01/17 02:33:22;;;;;;;17.20;9.32;;;;;;;-2.55;69.72;99407.53;4903033;29;20060;-93
2024/01/17 02:35:47;;;;;;;15.98;9.10;;;;;;;-2.44;69.06;99407.91;4890439;29;20024;-93
2024/01/17 02:38:15;;;;;;;12.38;8.27;;;;;;;-2.58;69.62;99392.09;4890116;29;20020;-93
2024/01/17 02:40:41;;;;;;;13.18;8.68;;;;;;;-2.43;69.27;99392.91;4904923;29;20024;-93
2024/01/17 02:43:06;;;;;;;12.25;8.60;;;;;;;-2.47;69.50;99389.00;4905152;29;20020;-93
2024/01/17 02:45:32;;;;;;;16.98;8.73;;;;;;;-2.56;69.64;99380.38;4919677;29;20028;-93
2024/01/17 02:47:58;;;;;;;17.40;10.20;;;;;;;-2.43;69.59;99403.44;4920608;29;20126;-93
2024/01/17 02:50:23;;;;;;;19.88;10.23;;;;;;;-2.54;69.52;99385.47;4887584;29;20039;-92
2024/01/17 02:52:49;;;;;;;15.98;9.65;;;;;;;-2.60;69.66;99380.94;4903681;29;20052;-93
2024/01/17 02:55:18;;;;;;;18.85;9.57;;;;;;;-2.75;69.68;99373.84;4903178;29;20483;-92
2024/01/17 02:57:44;;;;;;;18.42;10.00;;;;;;;-2.72;69.68;99378.75;4904024;29;20028;-92
2024/01/17 03:00:10;;;;;;;18.40;9.77;;;;;;;-2.81;69.83;99379.84;4902649;29;20055;-93
2024/01/17 03:02:35;;;;;;;20.35;10.85;;;;;;;-2.70;69.81;99395.22;4888076;29;20024;-94
2024/01/17 03:05:03;;;;;;;16.95;10.15;;;;;;;-2.86;69.79;99374.31;4903062;29;20122;-92
2024/01/17 03:07:29;;;;;;;17.80;9.82;;;;;;;-2.89;69.67;99369.38;4888411;29;20106;-93
2024/01/17 03:09:55;;;;;;;18.13;10.82;;;;;;;-2.84;69.66;99377.56;4888839;29;20024;-93
2024/01/17 03:12:20;;;;;;;17.75;11.23;;;;;;;-2.72;69.76;99389.31;4887968;29;20403;-93
2024/01/17 03:14:46;;;;;;;22.55;11.38;;;;;;;-2.74;69.28;99374.66;4889275;29;20092;-94
2024/01/17 03:17:14;;;;;;;23.25;11.40;;;;;;;-2.80;69.18;99375.38;4888726;29;20028;-93
2024/01/17 03:19:40;;;;;;;20.77;11.50;;;;;;;-2.81;69.32;99368.50;4888795;29;20063;-93
2024/01/17 03:22:05;;;;;;;20.13;11.68;;;;;;;-2.83;69.96;99373.94;4904413;29;20024;-93
2024/01/17 03:24:31;;;;;;;22.77;12.02;;;;;;;-2.98;70.10;99359.94;4903833;29;20232;-94
2024/01/17 03:26:56;;;;;;;27.60;12.27;;;;;;;-2.94;69.64;99363.84;4887924;29;20020;-93
2024/01/17 03:29:22;;;;;;;27.38;13.50;;;;;;;-2.98;69.42;99344.94;4903080;29;20123;-94
2024/01/17 03:31:47;;;;;;;25.08;13.25;;;;;;;-2.87;69.06;99368.19;4902780;29;20036;-93
2024/01/17 03:34:13;;;;;;;26.58;12.85;;;;;;;-2.88;69.37;99373.66;4887351;29;20095;-93
2024/01/17 03:36:39;;;;;;;21.05;11.88;;;;;;;-2.93;69.29;99355.75;4887682;29;20024;-93
2024/01/17 03:39:05;;;;;;;20.95;11.15;;;;;;;-2.97;69.25;99370.28;4904701;29;20031;-93
2024/01/17 03:41:31;;;;;;;22.80;12.52;;;;;;;-3.02;69.96;99356.84;4903495;29;20027;-93
2024/01/17 03:43:57;;;;;;;21.27;11.82;;;;;;;-3.05;69.75;99344.03;4886591;29;20490;-93
2024/01/17 03:46:23;;;;;;;21.50;11.40;;;;;;;-3.03;69.65;99357.84;4903587;29;20035;-94
2024/01/17 03:48:49;;;;;;;16.42;10.82;;;;;;;-3.02;69.89;99356.84;4920241;29;20106;-93
2024/01/17 03:51:15;;;;;;;19.52;11.75;;;;;;;-3.05;69.91;99363.31;4903594;29;20502;-94
2024/01/17 03:53:40;;;;;;;22.35;11.77;;;;;;;-3.05;69.98;99365.94;4903576;29;20479;-93
2024/01/17 03:56:06;;;;;;;23.25;12.25;;;;;;;-3.04;69.49;99350.94;4903362;29;20024;-93
2024/01/17 03:58:31;;;;;;;23.58;11.55;;;;;;;-3.03;69.87;99365.72;4903846;29;20031;-93
2024/01/17 04:00:57;;;;;;;20.73;11.85;;;;;;;-2.98;68.97;99378.38;4887611;29;20048;-93
2024/01/17 04:03:23;;;;;;;21.00;11.00;;;;;;;-2.99;68.96;99376.72;4886899;29;20028;-93
2024/01/17 04:05:48;;;;;;;20.13;10.95;;;;;;;-3.08;69.72;99381.28;4904357;29;20028;-94
2024/01/17 04:08:14;;;;;;;18.77;11.40;;;;;;;-3.10;69.79;99375.38;4919524;29;20067;-93
2024/01/17 04:10:39;;;;;;;18.42;10.73;;;;;;;-2.99;69.77;99414.41;4904693;29;20024;-93
2024/01/17 04:13:05;;;;;;;19.67;11.20;;;;;;;-3.19;69.80;99390.44;4908102;29;20031;-96
2024/01/17 04:15:31;;;;;;;22.60;10.50;;;;;;;-3.13;69.70;99402.88;4911688;29;20059;-96
2024/01/17 04:17:56;;;;;;;21.08;10.45;;;;;;;-3.28;69.73;99384.44;4928097;29;20020;-96
2024/01/17 04:20:22;;;;;;;21.73;10.70;;;;;;;-3.26;69.93;99378.97;4929537;29;20110;-96
2024/01/17 04:22:48;;;;;;;16.73;10.10;;;;;;;-3.38;70.10;99386.50;4914313;29;20024;-96
2024/01/17 04:25:13;;;;;;;18.35;10.75;;;;;;;-3.43;70.41;99395.91;4923193;29;20023;-93
2024/01/17 04:27:39;;;;;;;17.60;10.07;;;;;;;-3.42;70.09;99385.22;4907774;29;20403;-93
2024/01/17 04:30:06;;;;;;;18.85;10.25;;;;;;;-3.42;70.18;99381.72;4910545;29;20032;-92
2024/01/17 04:32:35;;;;;;;16.67;9.45;;;;;;;-3.36;70.56;99397.66;4901925;29;20043;-92
2024/01/17 04:35:00;;;;;;;18.48;10.77;;;;;;;-3.50;70.65;99390.53;4902035;29;20024;-93
2024/01/17 04:37:27;;;;;;;19.02;10.77;;;;;;;-3.41;70.14;99404.44;4903027;29;20506;-92
2024/01/17 04:39:52;;;;;;;20.48;10.63;;;;;;;-3.50;70.72;99393.97;4917568;29;20047;-95
2024/01/17 04:42:19;;;;;;;17.15;10.98;;;;;;;-3.57;70.98;99406.22;4922199;29;20020;-95
2024/01/17 04:44:45;;;;;;;16.80;10.38;;;;;;;-3.57;71.31;99406.22;4904746;29;20036;-95
2024/01/17 04:47:17;;;;;;;17.30;11.80;;;;;;;-3.69;70.99;99395.28;4889100;29;20095;-95
2024/01/17 04:49:43;;;;;;;19.85;12.20;;;;;;;-3.51;71.10;99413.41;4905447;29;20028;-95
2024/01/17 04:52:15;;;;;;;21.60;11.07;;;;;;;-3.64;70.87;99405.28;4903996;29;20067;-95
2024/01/17 04:54:41;;;;;;;19.33;11.07;;;;;;;-3.46;70.64;99411.06;4883101;29;20028;-92
2024/01/17 04:57:07;;;;;;;19.35;11.35;;;;;;;-3.46;70.37;99397.09;4886235;29;20032;-93
2024/01/17 04:59:32;;;;;;;18.83;10.55;;;;;;;-3.52;70.65;99388.06;4887515;29;20499;-94
2024/01/17 05:01:58;;;;;;;19.02;10.65;;;;;;;-3.43;70.27;99393.28;4899809;29;20091;-93
2024/01/17 05:04:23;;;;;;;21.55;12.05;;;;;;;-3.51;70.23;99378.34;4919571;29;20046;-92
2024/01/17 05:06:49;;;;;;;20.70;11.82;;;;;;;-3.51;71.09;99391.53;4918466;29;20498;-92
2024/01/17 05:09:17;;;;;;;20.13;12.00;;;;;;;-3.35;70.24;99393.22;4920646;29;20032;-93
2024/01/17 05:11:45;;;;;;;18.83;11.57;;;;;;;-3.29;70.23;99395.94;4920681;29;20028;-94
2024/01/17 05:14:14;;;;;;;31.13;13.80;;;;;;;-3.37;69.98;99372.31;4919066;29;20024;-94
2024/01/17 05:16:40;;;;;;;17.17;11.75;;;;;;;-3.21;69.68;99384.53;4911989;29;20054;-94
2024/01/17 05:19:05;;;;;;;27.98;13.82;;;;;;;-3.26;70.20;99381.59;4891174;29;20127;-93
2024/01/17 05:21:31;;;;;;;24.83;13.15;;;;;;;-2.92;69.34;99411.91;4917076;29;20482;-96
2024/01/17 05:23:57;;;;;;;76.80;54.17;;;;;;;-2.89;69.48;99411.53;4906320;29;20024;-93
2024/01/17 05:26:22;;;;;;;30.20;17.17;;;;;;;-2.92;69.20;99406.63;4902532;29;20020;-94
2024/01/17 05:28:48;;;;;;;28.05;15.52;;;;;;;-2.82;69.19;99398.44;4905114;29;20028;-94
2024/01/17 05:31:14;;;;;;;23.05;14.38;;;;;;;-2.70;68.93;99434.75;4905545;29;20032;-93
2024/01/17 05:33:40;;;;;;;34.50;15.23;;;;;;;-2.66;68.79;99420.19;4903191;29;20043;-94
2024/01/17 05:36:07;;;;;;;22.55;13.40;;;;;;;-2.79;68.71;99398.91;4903034;29;20028;-94
2024/01/17 05:38:35;;;;;;;24.63;14.00;;;;;;;-2.55;68.53;99423.34;4907250;29;20036;-95
2024/01/17 05:41:06;;;;;;;24.98;14.45;;;;;;;-2.49;68.63;99434.00;4889173;29;20060;-95
2024/01/17 05:43:32;;;;;;;25.17;13.88;;;;;;;-2.67;68.21;99391.38;4903879;29;20016;-93
2024/01/17 05:45:58;;;;;;;30.60;15.38;;;;;;;-2.41;68.21;99448.09;4924409;23;20027;-96
2024/01/17 05:48:25;;;;;;;30.58;16.70;;;;;;;-2.63;68.55;99450.63;4904452;29;20503;-94
2024/01/17 05:50:53;;;;;;;30.98;16.45;;;;;;;-2.80;68.49;99415.75;4923454;29;20035;-96
2024/01/17 05:53:19;;;;;;;31.55;16.88;;;;;;;-2.62;67.99;99435.63;4893017;29;20035;-95
2024/01/17 05:55:45;;;;;;;29.25;16.50;;;;;;;-2.61;68.18;99437.25;4892435;29;20060;-94
2024/01/17 05:58:11;;;;;;;31.77;17.80;;;;;;;-2.58;67.63;99452.72;4905359;29;20037;-95
2024/01/17 06:00:45;;;;;;;30.42;17.42;;;;;;;-2.56;67.82;99427.81;4911384;29;20031;-95
2024/01/17 06:03:14;;;;;;;26.70;16.55;;;;;;;-2.48;67.24;99435.63;4914794;29;20035;-95
2024/01/17 06:05:41;;;;;;;24.98;14.98;;;;;;;-2.37;67.45;99436.19;4915600;29;20042;-96
2024/01/17 06:08:19;;;;;;;31.20;16.38;;;;;;;-2.26;66.94;99441.81;4918384;29;20482;-96
2024/01/17 06:10:51;;;;;;;30.67;16.77;;;;;;;-2.30;67.15;99439.72;4944707;29;20011;-96
2024/01/17 06:13:16;;;;;;;36.83;17.00;;;;;;;-2.33;67.68;99442.72;4924464;29;20031;-96
2024/01/17 06:15:51;;;;;;;30.42;16.50;;;;;;;-2.40;66.82;99429.47;4922374;29;20054;-96
2024/01/17 06:18:17;;;;;;;32.10;17.50;;;;;;;-2.24;67.42;99446.91;5209367;23;20522;-92
2024/01/17 06:20:43;;;;;;;32.50;17.67;;;;;;;-2.26;67.16;99433.09;4923160;29;20043;-94
2024/01/17 06:23:16;;;;;;;37.40;17.38;;;;;;;-2.17;66.70;99428.53;5058325;23;20051;-95
2024/01/17 06:31:09;;;;;;;35.80;19.27;;;;;;;-1.93;66.29;99430.84;5447426;23;20058;-95
2024/01/17 06:33:37;;;;;;;32.42;17.52;;;;;;;-2.05;66.58;99433.13;4933547;28;20114;-95
2024/01/17 06:42:16;;;;;;;32.45;17.55;;;;;;;-2.18;67.34;99461.16;5466717;23;20055;31
2024/01/17 06:45:06;;;;;;;41.30;18.27;;;;;;;-2.30;68.11;99424.72;4931897;29;20048;-96
2024/01/17 06:47:36;;;;;;;31.25;17.63;;;;;;;-2.20;66.93;99418.31;4918817;29;20032;-95
2024/01/17 06:50:10;;;;;;;33.97;19.95;;;;;;;-1.91;66.20;99417.44;4935391;29;20147;-95
2024/01/17 06:52:36;;;;;;;43.88;21.35;;;;;;;-1.71;65.91;99434.31;4929678;29;20024;-95
2024/01/17 06:55:05;;;;;;;33.28;17.95;;;;;;;-1.95;65.80;99419.66;4931888;29;20043;-94
2024/01/17 06:57:45;;;;;;;38.47;17.42;;;;;;;-2.24;67.21;99407.34;4929361;29;20008;-96
2024/01/17 07:00:50;;;;;;;;;;;;;;;;;;;;;
2024/01/17 07:14:49;;;;;;;28.42;16.70;;;;;;;-1.35;65.97;99414.97;4953122;29;20051;-96
2024/01/17 07:20:30;;;;;;;33.38;18.15;;;;;;;-1.45;65.59;99394.16;4946172;23;20058;-96
2024/01/17 07:23:16;;;;;;;35.30;20.17;;;;;;;-1.20;65.83;99401.69;4902812;29;20048;-95
2024/01/17 07:25:46;;;;;;;40.13;20.92;;;;;;;-1.00;65.05;99407.09;4911730;29;20072;-95
2024/01/17 07:28:28;;;;;;;56.47;22.10;;;;;;;-0.77;65.01;99428.00;4863058;29;20044;-96
2024/01/17 07:30:56;;;;;;;50.30;22.10;;;;;;;-0.81;65.56;99418.81;4864141;29;20049;-96
2024/01/17 07:33:49;;;;;;;43.90;20.75;;;;;;;-0.72;65.53;99433.53;4844529;29;20037;-96
2024/01/17 07:36:30;;;;;;;44.17;20.95;;;;;;;-0.94;65.80;99400.22;4877593;29;20086;-95
2024/01/17 07:59:38;;;;;;;34.92;17.90;;;;;;;0.73;62.22;99394.53;4984099;28;20054;-96
2024/01/17 08:02:31;;;;;;;36.03;18.00;;;;;;;0.84;61.55;99377.19;4961112;28;20042;-96
2024/01/17 08:08:30;;;;;;;40.40;21.42;;;;;;;1.37;60.28;99403.63;4857240;29;20420;-95
2024/01/17 08:11:05;;;;;;;59.40;34.17;;;;;;;1.23;60.98;99356.94;4933209;28;20038;-95
2024/01/17 08:13:39;;;;;;;41.20;23.27;;;;;;;1.40;60.53;99358.09;4934178;28;20023;-93
2024/01/17 08:16:07;;;;;;;39.40;24.30;;;;;;;1.68;60.11;99364.13;4951547;28;20030;-91
2024/01/17 08:18:42;;;;;;;45.90;24.42;;;;;;;1.90;58.78;99369.97;4929030;28;20034;-93
2024/01/17 08:21:32;;;;;;;43.17;24.05;;;;;;;1.84;59.34;99358.34;4932484;28;20042;-93
2024/01/17 08:23:59;;;;;;;38.78;23.23;;;;;;;2.15;58.56;99381.47;4931854;28;20407;-92
2024/01/17 08:26:25;;;;;;;42.60;24.73;;;;;;;2.26;58.30;99371.19;4945589;28;20019;-95
2024/01/17 08:28:55;;;;;;;55.10;27.48;;;;;;;2.18;58.06;99349.19;4930905;28;20022;-96
2024/01/17 08:31:30;;;;;;;39.63;24.90;;;;;;;2.39;58.02;99369.25;4946028;28;20034;-95
2024/01/17 08:34:25;;;;;;;44.15;25.08;;;;;;;2.38;57.73;99353.53;4932597;28;20015;-96
2024/01/17 08:37:23;;;;;;;56.22;25.77;;;;;;;2.73;57.48;99371.66;4949696;28;20058;-93
2024/01/17 08:39:59;;;;;;;43.47;25.30;;;;;;;2.82;56.93;99354.41;4946888;28;20058;-93
2024/01/17 08:42:27;;;;;;;54.25;28.17;;;;;;;3.01;57.41;99349.94;4932731;28;20050;-93
2024/01/17 08:44:58;;;;;;;49.45;25.83;;;;;;;3.16;56.19;99338.97;4934264;28;20456;-93
2024/01/17 08:47:28;;;;;;;53.20;27.02;;;;;;;3.32;55.74;99333.06;4943706;28;20010;-94
2024/01/17 08:49:59;;;;;;;55.22;26.20;;;;;;;3.58;55.44;99355.06;4935118;28;20050;-94
2024/01/17 08:52:27;;;;;;;51.85;26.17;;;;;;;3.77;55.50;99355.84;4933958;28;20058;-93
2024/01/17 08:55:12;;;;;;;;;;;;;;;;;;;;;
2024/01/17 08:57:48;;;;;;;55.67;29.00;;;;;;;3.97;54.91;99336.97;4964859;28;20500;-96
2024/01/17 09:00:19;;;;;;;66.78;34.17;;;;;;;4.14;55.05;99329.13;4950823;28;20105;-94
2024/01/17 09:02:45;;;;;;;61.83;30.05;;;;;;;4.10;54.73;99306.66;4950458;28;20093;-94
2024/01/17 09:05:24;;;;;;;;;;;;;;;;;;;;;
2024/01/17 09:08:03;;;;;;;58.80;28.67;;;;;;;4.38;54.09;99311.31;4954616;28;20113;-92
2024/01/17 09:10:36;;;;;;;57.97;28.90;;;;;;;4.50;53.42;99298.81;4946239;28;20022;-94
2024/01/17 09:13:13;;;;;;;57.90;31.55;;;;;;;4.63;53.85;99293.28;4918939;28;20038;-93
2024/01/17 09:15:52;;;;;;;58.30;29.98;;;;;;;4.80;53.31;99282.72;4926248;29;20071;-94
2024/01/17 09:18:20;;;;;;;68.30;29.60;;;;;;;5.03;53.01;99286.44;4927683;29;20098;-93
2024/01/17 09:20:59;;;;;;;62.30;32.53;;;;;;;5.20;52.88;99283.84;4927786;29;20027;-96
2024/01/17 09:23:32;;;;;;;69.65;31.10;;;;;;;5.24;52.90;99255.63;4930112;29;20027;-95
2024/01/17 09:26:21;;;;;;;58.40;32.13;;;;;;;5.39;53.25;99266.59;4927013;29;20192;-95
2024/01/17 09:28:57;;;;;;;74.30;31.73;;;;;;;5.66;52.26;99269.56;4942377;29;20023;-95
2024/01/17 09:31:41;;;;;;;62.20;31.10;;;;;;;5.70;52.15;99261.84;4926586;28;20023;-93
2024/01/17 09:34:15;;;;;;;76.57;33.90;;;;;;;5.78;52.53;99248.09;4950816;28;20033;-95
2024/01/17 09:37:14;;;;;;;;;;;;;;;;;;;;;
2024/01/17 09:43:40;;;;;;;59.70;29.80;;;;;;;6.16;51.64;99248.50;4976199;28;20098;-96
2024/01/17 09:46:12;;;;;;;70.30;36.97;;;;;;;6.39;51.65;99247.53;4926355;28;20066;-93
2024/01/17 09:48:38;;;;;;;;;;;;;;;6.71;51.60;99269.16;4952357;28;20102;-95
2024/01/17 09:51:04;;;;;;;74.10;34.70;;;;;;;6.77;51.45;99236.06;4966109;28;19914;-93
2024/01/17 09:54:33;;;;;;;67.25;33.03;;;;;;;6.98;51.20;99233.66;4961631;28;20019;-95
2024/01/17 09:57:58;;;;;;;;;;;;;;;;;;;;;
2024/01/17 10:00:49;;;;;;;;;;;;;;;;;;;;;
2024/01/17 10:04:00;;;;;;;;;;;;;;;;;;;;;
2024/01/17 10:06:51;;;;;;;60.38;29.23;;;;;;;8.12;48.02;99244.53;4917001;29;20052;-96
2024/01/17 10:09:44;;;;;;;66.18;32.55;;;;;;;8.52;47.52;99259.34;5203079;23;20072;-96
2024/01/17 10:12:44;;;;;;;;;;;;;;;;;;;;;
2024/01/17 10:15:22;;;;;;;49.15;28.33;;;;;;;8.68;47.28;99248.44;4914644;29;20056;-96
2024/01/17 10:18:26;;;;;;;59.53;28.55;;;;;;;8.82;47.61;99258.72;4899650;29;20044;-96
2024/01/17 10:21:24;;;;;;;36.42;23.77;;;;;;;9.03;47.19;99238.97;4886169;29;20068;-96
2024/01/17 10:27:11;;;;;;;42.88;22.40;;;;;;;9.35;46.51;99232.66;4870755;29;20130;-95
2024/01/17 10:30:13;;;;;;;43.80;21.88;;;;;;;9.40;46.16;99207.66;4892527;29;20040;-96
2024/01/17 10:32:52;;;;;;;50.13;24.67;;;;;;;9.54;45.68;99202.59;4881595;29;20036;-96
2024/01/17 10:35:29;;;;;;;;;;;;;;;;;;;;;
2024/01/17 10:37:58;;;;;;;34.47;19.88;;;;;;;9.66;44.74;99192.41;4875859;29;20250;-93
2024/01/17 10:40:30;;;;;;;35.30;18.67;;;;;;;9.87;45.23;99204.81;4903939;29;20051;-94
2024/01/17 10:47:00;;;;;;;41.17;21.90;;;;;;;10.25;44.66;99202.66;4837727;29;20490;-96
2024/01/17 10:50:02;;;;;;;23.70;14.90;;;;;;;10.36;43.96;99176.59;4855853;29;20041;-96
2024/01/17 10:52:39;;;;;;;38.95;16.05;;;;;;;10.64;44.03;99195.91;4833129;29;20053;-95
2024/01/17 11:08:15;;;;;;;;;;;;;;;;;;;;;
2024/01/17 11:11:08;;;;;;;23.55;13.27;;;;;;;11.31;42.74;99151.44;4972890;28;20114;-96
2024/01/17 11:13:42;;;;;;;37.15;17.77;;;;;;;11.55;42.34;99183.09;4957947;28;20035;-96
2024/01/17 11:16:38;;;;;;;36.17;16.83;;;;;;;11.43;42.62;99153.78;4943421;28;20025;-96
2024/01/17 11:19:13;;;;;;;33.10;16.63;;;;;;;11.33;42.83;99135.81;4979531;28;20076;-96
2024/01/17 11:21:41;;;;;;;32.70;16.50;;;;;;;11.53;42.95;99163.72;4943479;28;20007;-96
2024/01/17 11:24:29;;;;;;;23.55;13.75;;;;;;;11.43;43.16;99148.38;4912863;29;20039;-96
2024/01/17 11:27:50;;;;;;;36.90;13.57;;;;;;;11.49;42.85;99143.78;4915568;29;20028;-96
2024/01/17 11:30:44;;;;;;;27.02;15.13;;;;;;;11.47;43.32;99141.34;4899392;29;20035;-96
2024/01/17 11:36:32;;;;;;;29.83;13.77;;;;;;;11.15;43.77;99122.19;5252344;23;20078;-96
2024/01/17 11:39:29;;;;;;;;;;;;;;;;;;;;;
2024/01/17 11:42:04;;;;;;;24.55;13.23;;;;;;;10.71;44.17;99108.38;4934123;29;20078;-94
2024/01/17 11:44:39;;;;;;;33.60;15.00;;;;;;;10.78;44.27;99118.03;4909357;29;20027;-96
2024/01/17 11:50:23;;;;;;;35.33;17.27;;;;;;;10.64;45.00;99125.88;4935098;29;20484;-95
2024/01/17 11:53:15;;;;;;;32.10;17.13;;;;;;;10.54;45.17;99107.88;4928815;29;20031;-95
2024/01/17 11:56:27;;;;;;;33.77;16.53;;;;;;;10.46;45.29;99095.00;4912479;29;20178;-92
2024/01/17 11:58:57;;;;;;;25.30;14.93;;;;;;;10.42;45.39;99105.50;4925774;29;20276;-96
2024/01/17 12:01:33;;;;;;;25.27;13.57;;;;;;;10.48;45.43;99117.88;4909374;29;20015;-96
2024/01/17 12:04:36;;;;;;;;;;;;;;;;;;;;;
2024/01/17 12:07:07;;;;;;;25.92;13.90;;;;;;;10.34;45.59;99113.34;4945275;29;20102;-95
2024/01/17 12:09:33;;;;;;;29.23;14.63;;;;;;;10.28;45.80;99109.81;4918865;29;20042;-94
2024/01/17 12:12:04;;;;;;;31.98;13.23;;;;;;;10.16;45.70;99085.09;4917793;29;20031;-94
2024/01/17 12:15:48;;;;;;;;;;;;;;;;;;;;;
2024/01/17 12:35:02;;;;;;;31.55;14.82;;;;;;;10.97;45.00;99070.53;4969301;28;20372;-96
2024/01/17 12:37:39;;;;;;;33.55;14.35;;;;;;;11.20;44.17;99074.41;4931545;28;20041;-93
2024/01/17 12:45:27;;;;;;;176.65;105.95;;;;;;;11.44;44.61;99085.31;5640043;23;20046;-96
2024/01/17 13:35:20;;;;;;;27.02;13.50;;;;;;;9.89;46.88;99068.19;4969224;28;20043;-96
2024/01/17 13:38:06;;;;;;;28.15;9.70;;;;;;;9.84;47.48;99043.22;4902303;29;20185;-95
2024/01/17 13:40:55;;;;;;;9.20;6.63;;;;;;;9.74;47.34;99041.34;4874147;29;20033;-96
2024/01/17 13:43:43;;;;;;;11.70;8.52;;;;;;;9.81;47.30;99041.03;4888641;29;20032;-96
2024/01/17 13:46:09;;;;;;;10.25;7.20;;;;;;;9.76;47.09;99028.41;4884702;29;20052;-96
2024/01/17 13:48:36;;;;;;;12.70;8.27;;;;;;;9.79;47.03;99032.44;4862368;29;20045;-94
2024/01/17 13:51:13;;;;;;;12.70;9.27;;;;;;;9.73;47.25;99050.47;4867211;29;20039;-96
2024/01/17 13:53:52;;;;;;;20.10;10.43;;;;;;;9.67;47.59;99041.63;4873749;29;20632;-95
2024/01/17 13:56:21;;;;;;;15.60;9.43;;;;;;;9.67;47.70;99056.91;4856475;29;20045;-96
2024/01/17 14:11:29;;;;;;;13.27;7.53;;;;;;;9.15;48.89;99048.06;4951422;29;19918;-96
2024/01/17 14:13:55;;;;;;;10.65;6.63;;;;;;;8.95;49.97;99035.41;4934664;29;20036;-96
2024/01/17 14:16:26;;;;;;;15.70;9.50;;;;;;;8.85;49.86;99038.06;4927384;29;20139;-95
2024/01/17 15:18:29;;;;;;;32.83;17.10;;;;;;;7.42;55.68;99056.88;5526762;23;20058;-96
2024/01/17 15:20:55;;;;;;;29.25;16.25;;;;;;;7.37;55.63;99049.59;4936802;28;20022;-94
2024/01/17 15:23:22;;;;;;;22.55;12.50;;;;;;;7.33;55.89;99050.38;4935939;28;20018;-96
2024/01/17 15:25:52;;;;;;;28.63;13.32;;;;;;;7.35;55.89;99054.41;4954179;28;20019;-94
2024/01/17 15:28:25;;;;;;;22.75;14.07;;;;;;;7.17;56.21;99049.41;4953208;28;20026;-95
2024/01/17 15:30:55;;;;;;;26.00;15.48;;;;;;;7.08;56.22;99038.38;4984957;28;20166;-95
2024/01/17 15:33:23;;;;;;;26.33;13.60;;;;;;;7.13;56.41;99064.38;4938106;28;20480;-95
2024/01/17 15:35:49;;;;;;;28.10;12.25;;;;;;;7.04;56.34;99053.31;4935849;28;20126;-95
2024/01/17 15:38:16;;;;;;;34.08;16.13;;;;;;;6.85;56.85;99024.22;4937897;28;20027;-96
2024/01/17 15:40:51;;;;;;;30.30;14.82;;;;;;;6.96;56.85;99051.91;4936640;28;20066;-96
2024/01/17 15:43:19;;;;;;;20.95;14.20;;;;;;;6.81;56.77;99046.41;4936599;28;20033;-95